createdAt,value
2018-09-24T00:02:24.367Z,19.90
2018-09-24T00:04:53.023Z,19.80
2018-09-24T00:07:21.668Z,19.80
2018-09-24T00:09:50.431Z,19.70
2018-09-24T00:12:18.989Z,19.60
2018-09-24T00:14:53.141Z,19.60
2018-09-24T00:17:21.757Z,19.50
2018-09-24T00:19:50.488Z,19.50
2018-09-24T00:22:19.140Z,19.50
2018-09-24T00:24:47.806Z,19.50
2018-09-24T00:27:16.461Z,19.50
2018-09-24T00:29:45.030Z,19.60
2018-09-24T00:32:13.635Z,19.60
2018-09-24T00:34:42.206Z,19.60
2018-09-24T00:37:10.791Z,19.70
2018-09-24T00:39:39.548Z,19.90
2018-09-24T00:42:08.373Z,20.00
2018-09-24T00:44:37.201Z,20.10
2018-09-24T00:47:05.975Z,20.20
2018-09-24T00:49:35.006Z,20.30
2018-09-24T00:52:04.136Z,20.30
2018-09-24T00:54:32.972Z,20.30
2018-09-24T00:57:01.696Z,20.30
2018-09-24T00:59:30.466Z,20.30
2018-09-24T01:01:59.165Z,20.50
2018-09-24T01:04:27.803Z,20.50
2018-09-24T01:06:56.533Z,20.50
2018-09-24T01:09:25.108Z,20.50
2018-09-24T01:11:53.645Z,20.50
2018-09-24T01:14:22.295Z,20.50
2018-09-24T01:16:50.925Z,20.40
2018-09-24T01:19:19.646Z,20.40
2018-09-24T01:21:48.325Z,20.50
2018-09-24T01:24:17.113Z,20.50
2018-09-24T01:26:45.855Z,20.50
2018-09-24T01:29:14.525Z,20.60
2018-09-24T01:31:43.200Z,20.60
2018-09-24T01:34:11.845Z,20.50
2018-09-24T01:36:40.453Z,20.50
2018-09-24T01:39:09.201Z,20.60
2018-09-24T01:41:37.880Z,20.60
2018-09-24T01:44:06.579Z,20.50
2018-09-24T01:46:35.285Z,20.40
2018-09-24T01:49:04.053Z,20.40
2018-09-24T01:51:38.028Z,20.60
2018-09-24T01:54:07.235Z,20.40
2018-09-24T01:56:36.017Z,20.30
2018-09-24T01:59:04.845Z,20.20
2018-09-24T02:01:33.555Z,20.30
2018-09-24T02:04:02.356Z,20.20
2018-09-24T02:06:31.038Z,20.20
2018-09-24T02:08:59.663Z,20.20
2018-09-24T02:11:28.258Z,20.20
2018-09-24T02:13:56.873Z,20.20
2018-09-24T02:16:25.460Z,20.20
2018-09-24T02:19:00.213Z,20.20
2018-09-24T02:21:29.033Z,20.10
2018-09-24T02:24:05.230Z,20.00
2018-09-24T02:26:33.920Z,19.90
2018-09-24T02:29:02.597Z,19.90
2018-09-24T02:31:38.968Z,19.90
2018-09-24T02:34:09.660Z,19.90
2018-09-24T02:36:38.353Z,19.80
2018-09-24T02:39:08.621Z,19.80
2018-09-24T02:41:37.733Z,19.70
2018-09-24T02:44:06.373Z,19.70
2018-09-24T02:46:42.687Z,19.70
2018-09-24T02:49:11.399Z,19.60
2018-09-24T02:51:40.186Z,19.50
2018-09-24T02:54:08.908Z,19.60
2018-09-24T02:56:47.495Z,19.60
2018-09-24T02:59:16.255Z,19.50
2018-09-24T03:01:44.835Z,19.50
2018-09-24T03:04:13.434Z,19.40
2018-09-24T03:06:41.983Z,19.40
2018-09-24T03:09:18.003Z,19.40
2018-09-24T03:11:47.029Z,19.40
2018-09-24T03:14:23.601Z,19.40
2018-09-24T03:16:53.095Z,19.50
2018-09-24T03:19:21.748Z,19.40
2018-09-24T03:21:50.486Z,19.40
2018-09-24T03:24:19.168Z,19.40
2018-09-24T03:26:47.833Z,19.40
2018-09-24T03:29:22.520Z,19.40
2018-09-24T03:31:51.493Z,19.40
2018-09-24T03:34:20.178Z,19.50
2018-09-24T03:36:50.061Z,19.60
2018-09-24T03:39:18.859Z,19.60
2018-09-24T03:41:47.534Z,19.60
2018-09-24T03:44:16.185Z,19.60
2018-09-24T03:46:44.886Z,19.70
2018-09-24T03:49:13.539Z,19.80
2018-09-24T03:51:42.403Z,19.80
2018-09-24T03:54:11.158Z,19.90
2018-09-24T03:56:39.827Z,19.90
2018-09-24T03:59:08.596Z,20.00
2018-09-24T04:01:37.498Z,20.10
2018-09-24T04:04:12.044Z,20.10
2018-09-24T04:06:46.335Z,20.10
2018-09-24T04:09:20.565Z,20.10
2018-09-24T04:11:54.868Z,20.20
2018-09-24T04:14:29.355Z,20.20
2018-09-24T04:17:03.425Z,20.20
2018-09-24T04:19:37.563Z,20.20
2018-09-24T04:22:11.814Z,20.30
2018-09-24T04:24:52.160Z,20.30
2018-09-24T04:27:26.228Z,20.30
2018-09-24T04:30:00.690Z,20.30
2018-09-24T04:32:34.724Z,20.20
2018-09-24T04:35:08.903Z,20.20
2018-09-24T04:37:44.555Z,20.20
2018-09-24T04:40:18.673Z,20.20
2018-09-24T04:42:52.689Z,20.20
2018-09-24T04:45:27.005Z,20.20
2018-09-24T04:48:01.270Z,20.20
2018-09-24T04:50:35.528Z,20.20
2018-09-24T04:53:15.393Z,20.20
2018-09-24T04:55:49.883Z,20.10
2018-09-24T04:58:24.227Z,20.10
2018-09-24T05:00:58.486Z,20.10
2018-09-24T05:03:32.712Z,20.10
2018-09-24T05:06:06.990Z,20.10
2018-09-24T05:08:43.548Z,20.10
2018-09-24T05:11:18.351Z,20.10
2018-09-24T05:13:52.552Z,20.10
2018-09-24T05:16:27.448Z,20.10
2018-09-24T05:19:02.590Z,20.10
2018-09-24T05:21:36.914Z,20.10
2018-09-24T05:24:11.986Z,20.10
2018-09-24T05:26:47.780Z,20.10
2018-09-24T05:29:27.408Z,20.10
2018-09-24T05:32:01.656Z,20.00
2018-09-24T05:34:35.932Z,20.00
2018-09-24T05:37:10.128Z,20.00
2018-09-24T05:39:48.318Z,20.10
2018-09-24T05:42:22.623Z,20.10
2018-09-24T05:44:56.948Z,20.20
2018-09-24T05:47:34.555Z,20.20
2018-09-24T05:50:19.533Z,20.20
2018-09-24T05:52:53.694Z,20.20
2018-09-24T05:55:27.988Z,20.20
2018-09-24T05:58:02.058Z,20.30
2018-09-24T06:00:39.333Z,20.30
2018-09-24T06:03:13.317Z,20.30
2018-09-24T06:05:47.378Z,20.40
2018-09-24T06:08:26.548Z,20.40
2018-09-24T06:11:00.896Z,20.50
2018-09-24T06:13:35.131Z,20.50
2018-09-24T06:16:09.381Z,20.50
2018-09-24T06:18:48.213Z,20.50
2018-09-24T06:21:24.031Z,20.50
2018-09-24T06:23:58.324Z,20.60
2018-09-24T06:26:32.608Z,20.70
2018-09-24T06:29:06.974Z,20.70
2018-09-24T06:31:41.986Z,20.80
2018-09-24T06:34:16.347Z,20.90
2018-09-24T06:36:50.600Z,21.00
2018-09-24T06:39:27.188Z,21.00
2018-09-24T06:42:03.014Z,21.10
2018-09-24T06:44:37.169Z,21.20
2018-09-24T06:47:11.245Z,21.20
2018-09-24T06:49:46.945Z,21.40
2018-09-24T06:52:25.296Z,21.50
2018-09-24T06:54:59.591Z,21.60
2018-09-24T06:57:33.836Z,21.70
2018-09-24T07:00:08.211Z,21.90
2018-09-24T07:02:43.331Z,22.30
2018-09-24T07:05:17.649Z,22.80
2018-09-24T07:07:51.781Z,23.00
2018-09-24T07:10:28.344Z,23.30
2018-09-24T07:13:03.436Z,23.30
2018-09-24T07:15:37.614Z,23.20
2018-09-24T07:18:11.794Z,23.00
2018-09-24T07:20:47.243Z,23.20
2018-09-24T07:23:22.254Z,23.50
2018-09-24T07:26:02.174Z,23.70
2018-09-24T07:28:36.876Z,23.90
2018-09-24T07:31:11.916Z,24.00
2018-09-24T07:33:46.151Z,23.90
2018-09-24T07:36:20.266Z,23.90
2018-09-24T07:38:54.566Z,24.10
2018-09-24T07:41:28.736Z,24.00
2018-09-24T07:44:05.649Z,23.90
2018-09-24T07:46:39.836Z,23.90
2018-09-24T07:49:14.044Z,24.00
2018-09-24T07:51:49.356Z,24.20
2018-09-24T07:54:24.627Z,24.30
2018-09-24T07:56:58.940Z,24.60
2018-09-24T07:59:33.956Z,24.50
2018-09-24T08:02:08.429Z,24.70
2018-09-24T08:04:42.916Z,24.90
2018-09-24T08:07:17.124Z,25.10
2018-09-24T08:09:52.236Z,25.40
2018-09-24T08:12:26.694Z,25.40
2018-09-24T08:15:01.805Z,25.80
2018-09-24T08:17:36.263Z,26.10
2018-09-24T08:20:10.566Z,26.30
2018-09-24T08:22:44.879Z,26.50
2018-09-24T08:25:19.969Z,26.80
2018-09-24T08:27:54.186Z,27.00
2018-09-24T08:30:29.158Z,26.70
2018-09-24T08:33:03.326Z,26.50
2018-09-24T08:35:37.765Z,26.90
2018-09-24T08:38:12.008Z,27.10
2018-09-24T08:40:46.945Z,26.50
2018-09-24T08:43:21.008Z,26.00
2018-09-24T08:45:55.261Z,26.80
2018-09-24T08:48:29.713Z,27.30
2018-09-24T08:51:05.729Z,27.60
2018-09-24T08:53:39.966Z,27.50
2018-09-24T08:56:18.833Z,27.10
2018-09-24T08:58:53.592Z,26.80
2018-09-24T09:01:28.683Z,27.20
2018-09-24T09:04:02.998Z,28.00
2018-09-24T09:06:37.244Z,28.10
2018-09-24T09:09:15.890Z,28.20
2018-09-24T09:11:50.213Z,28.40
2018-09-24T09:14:24.488Z,28.40
2018-09-24T09:16:58.728Z,28.80
2018-09-24T09:19:33.049Z,29.10
2018-09-24T09:22:08.234Z,29.20
2018-09-24T09:24:42.563Z,29.20
2018-09-24T09:27:16.868Z,29.20
2018-09-24T09:29:51.216Z,29.20
2018-09-24T09:32:26.179Z,28.20
2018-09-24T09:35:00.501Z,27.40
2018-09-24T09:37:34.904Z,27.10
2018-09-24T09:40:09.174Z,27.60
2018-09-24T09:42:43.309Z,28.40
2018-09-24T09:45:17.524Z,28.80
2018-09-24T09:47:52.708Z,28.60
2018-09-24T09:50:27.069Z,29.00
2018-09-24T09:53:01.291Z,28.80
2018-09-24T09:55:35.436Z,28.80
2018-09-24T09:58:09.653Z,29.10
2018-09-24T10:00:43.825Z,29.30
2018-09-24T10:03:18.141Z,29.70
2018-09-24T10:05:54.753Z,29.70
2018-09-24T10:08:28.933Z,29.80
2018-09-24T10:11:03.129Z,29.90
2018-09-24T10:13:37.486Z,29.50
2018-09-24T10:16:13.268Z,29.80
2018-09-24T10:18:48.230Z,29.70
2018-09-24T10:21:22.454Z,29.80
2018-09-24T10:23:56.713Z,28.90
2018-09-24T10:26:31.960Z,28.60
2018-09-24T10:29:09.346Z,29.10
2018-09-24T10:31:43.665Z,29.90
2018-09-24T10:34:17.914Z,30.40
2018-09-24T10:37:04.026Z,31.10
2018-09-24T10:39:43.891Z,31.10
2018-09-24T10:42:18.213Z,31.70
2018-09-24T10:44:52.501Z,31.70
2018-09-24T10:47:26.816Z,31.50
2018-09-24T10:50:01.001Z,32.00
2018-09-24T10:52:35.215Z,31.70
2018-09-24T10:55:09.338Z,31.60
2018-09-24T10:57:43.647Z,30.80
2018-09-24T11:00:18.005Z,30.00
2018-09-24T11:02:52.270Z,29.50
2018-09-24T11:05:26.506Z,29.40
2018-09-24T11:08:00.809Z,29.50
2018-09-24T11:10:35.168Z,30.10
2018-09-24T11:13:09.386Z,30.10
2018-09-24T11:15:43.775Z,29.80
2018-09-24T11:18:18.853Z,28.40
2018-09-24T11:20:53.165Z,26.80
2018-09-24T11:23:27.556Z,26.00
2018-09-24T11:26:01.871Z,25.60
2018-09-24T11:28:39.316Z,25.30
2018-09-24T11:31:13.623Z,25.00
2018-09-24T11:33:47.985Z,25.00
2018-09-24T11:36:22.446Z,25.30
2018-09-24T11:42:02.203Z,25.50
2018-09-24T11:44:36.603Z,25.60
2018-09-24T11:47:11.992Z,26.40
2018-09-24T11:49:46.405Z,27.80
2018-09-24T11:52:21.043Z,29.20
2018-09-24T11:54:55.550Z,30.20
2018-09-24T11:57:30.108Z,31.30
2018-09-24T12:00:04.380Z,31.90
2018-09-24T12:02:38.981Z,32.10
2018-09-24T12:05:13.825Z,32.20
2018-09-24T12:07:48.130Z,32.60
2018-09-24T12:10:22.528Z,32.30
2018-09-24T12:12:57.536Z,31.70
2018-09-24T12:15:31.803Z,30.80
2018-09-24T12:18:06.036Z,30.20
2018-09-24T12:20:40.393Z,29.20
2018-09-24T12:23:14.888Z,28.50
2018-09-24T12:25:49.193Z,28.20
2018-09-24T12:28:23.770Z,28.00
2018-09-24T12:30:58.033Z,27.80
2018-09-24T12:33:32.437Z,27.80
2018-09-24T12:36:06.726Z,27.80
2018-09-24T12:38:42.041Z,27.90
2018-09-24T12:41:17.076Z,29.00
2018-09-24T12:43:51.430Z,30.20
2018-09-24T12:46:25.694Z,30.90
2018-09-24T12:49:00.927Z,31.50
2018-09-24T12:51:35.281Z,31.70
2018-09-24T12:54:11.872Z,32.20
2018-09-24T12:56:47.099Z,32.80
2018-09-24T12:59:21.719Z,32.90
2018-09-24T13:01:56.639Z,33.20
2018-09-24T13:04:30.944Z,33.90
2018-09-24T13:07:05.213Z,34.00
2018-09-24T13:09:41.456Z,34.20
2018-09-24T13:12:15.911Z,34.30
2018-09-24T13:14:51.832Z,34.30
2018-09-24T13:17:26.308Z,33.60
2018-09-24T13:20:01.409Z,32.70
2018-09-24T13:22:35.781Z,32.30
2018-09-24T13:25:10.061Z,32.40
2018-09-24T13:27:44.310Z,32.40
2018-09-24T13:30:19.109Z,31.60
2018-09-24T13:32:53.415Z,29.30
2018-09-24T13:35:28.720Z,27.60
2018-09-24T13:38:02.958Z,26.10
2018-09-24T13:40:42.058Z,25.30
2018-09-24T13:43:20.992Z,24.90
2018-09-24T13:45:59.041Z,24.40
2018-09-24T13:48:33.687Z,24.20
2018-09-24T13:51:08.434Z,24.10
2018-09-24T13:53:43.221Z,24.10
2018-09-24T13:56:17.919Z,24.20
2018-09-24T13:58:52.186Z,24.40
2018-09-24T14:01:26.646Z,24.30
2018-09-24T14:04:02.072Z,24.10
2018-09-24T14:06:41.921Z,23.90
2018-09-24T14:09:18.143Z,23.90
2018-09-24T14:11:52.471Z,23.70
2018-09-24T14:14:27.178Z,23.50
2018-09-24T14:17:02.533Z,23.40
2018-09-24T14:19:36.821Z,23.10
2018-09-24T14:22:11.490Z,22.90
2018-09-24T14:24:45.770Z,22.90
2018-09-24T14:27:21.161Z,23.00
2018-09-24T14:29:55.443Z,22.80
2018-09-24T14:32:30.154Z,22.80
2018-09-24T14:35:04.836Z,22.80
2018-09-24T14:37:40.234Z,22.80
2018-09-24T14:40:14.771Z,22.80
2018-09-24T14:42:49.445Z,22.80
2018-09-24T14:45:24.131Z,22.80
2018-09-24T14:47:58.791Z,22.60
2018-09-24T14:50:33.504Z,22.30
2018-09-24T14:53:08.224Z,22.30
2018-09-24T14:55:42.932Z,22.40
2018-09-24T14:58:18.153Z,22.60
2018-09-24T15:00:53.073Z,22.50
2018-09-24T15:03:27.837Z,22.60
2018-09-24T15:06:02.609Z,23.20
2018-09-24T15:08:38.364Z,23.70
2018-09-24T15:11:13.679Z,24.40
2018-09-24T15:13:48.101Z,24.60
2018-09-24T15:16:22.674Z,23.60
2018-09-24T15:18:57.284Z,22.70
2018-09-24T15:21:33.522Z,22.00
2018-09-24T15:24:08.166Z,21.70
2018-09-24T15:26:42.592Z,21.70
2018-09-24T15:29:17.981Z,21.70
2018-09-24T15:31:53.089Z,21.50
2018-09-24T15:34:27.802Z,21.30
2018-09-24T15:37:02.726Z,21.50
2018-09-24T15:39:37.792Z,21.60
2018-09-24T15:42:13.502Z,21.80
2018-09-24T15:44:50.719Z,21.90
2018-09-24T15:47:25.579Z,21.70
2018-09-24T15:50:01.094Z,21.60
2018-09-24T15:52:36.358Z,21.20
2018-09-24T15:55:11.983Z,20.90
2018-09-24T15:57:47.104Z,20.70
2018-09-24T16:00:22.159Z,20.60
2018-09-24T16:02:56.912Z,20.60
2018-09-24T16:05:32.817Z,20.50
2018-09-24T16:08:08.633Z,20.50
2018-09-24T16:10:44.325Z,20.40
2018-09-24T16:13:18.716Z,20.30
2018-09-24T16:15:58.737Z,20.20
2018-09-24T16:18:38.598Z,20.10
2018-09-24T16:21:13.458Z,20.20
2018-09-24T16:23:48.207Z,20.00
2018-09-24T16:26:22.777Z,20.00
2018-09-24T16:28:57.550Z,19.90
2018-09-24T16:31:37.627Z,19.90
2018-09-24T16:34:12.236Z,19.80
2018-09-24T16:36:46.864Z,19.70
2018-09-24T16:39:21.357Z,19.60
2018-09-24T16:41:56.803Z,19.60
2018-09-24T16:44:31.536Z,19.60
2018-09-24T16:47:11.829Z,19.50
2018-09-24T16:49:46.398Z,19.60
2018-09-24T16:52:20.964Z,19.60
2018-09-24T16:54:55.626Z,19.60
2018-09-24T16:57:30.180Z,19.60
2018-09-24T17:00:04.835Z,19.50
2018-09-24T17:02:40.257Z,19.50
2018-09-24T17:05:15.072Z,19.50
2018-09-24T17:07:49.584Z,19.40
2018-09-24T17:10:24.169Z,19.40
2018-09-24T17:13:04.379Z,19.40
2018-09-24T17:15:39.187Z,19.40
2018-09-24T17:18:19.967Z,19.40
2018-09-24T17:20:54.559Z,19.30
2018-09-24T17:23:30.226Z,19.20
2018-09-24T17:26:04.876Z,19.10
2018-09-24T17:28:40.679Z,19.10
2018-09-24T17:31:20.965Z,19.10
2018-09-24T17:33:55.689Z,19.10
2018-09-24T17:36:30.198Z,19.00
2018-09-24T17:39:04.728Z,19.00
2018-09-24T17:41:39.714Z,19.00
2018-09-24T17:44:14.443Z,19.00
2018-09-24T17:46:48.882Z,18.90
2018-09-24T17:49:29.059Z,18.80
2018-09-24T17:52:03.639Z,18.80
2018-09-24T17:54:43.852Z,18.70
2018-09-24T17:57:18.509Z,18.80
2018-09-24T17:59:53.029Z,18.70
2018-09-24T18:02:29.163Z,18.70
2018-09-24T18:05:04.008Z,18.70
2018-09-24T18:07:39.046Z,18.60
2018-09-24T18:10:14.441Z,18.60
2018-09-24T18:12:48.936Z,18.50
2018-09-24T18:15:24.328Z,18.50
2018-09-24T18:17:58.911Z,18.40
2018-09-24T18:20:33.725Z,18.30
2018-09-24T18:23:08.271Z,18.30
2018-09-24T18:25:44.317Z,18.30
2018-09-24T18:28:19.058Z,18.20
2018-09-24T18:30:53.488Z,18.20
2018-09-24T18:52:37.389Z,18.00
2018-09-24T18:55:17.461Z,18.00
2018-09-24T18:57:58.160Z,17.90
2018-09-24T19:03:15.753Z,17.90
2018-09-24T19:05:51.496Z,17.80
2018-09-24T19:08:27.548Z,17.80
2018-09-24T19:11:01.891Z,17.80
2018-09-24T19:13:36.759Z,17.70
2018-09-24T19:16:16.667Z,17.70
2018-09-24T19:18:51.274Z,17.60
2018-09-24T19:21:25.644Z,17.60
2018-09-24T19:24:00.129Z,17.60
2018-09-24T19:26:35.776Z,17.50
2018-09-24T19:29:16.144Z,17.50
2018-09-24T19:31:50.801Z,17.50
2018-09-24T19:34:26.029Z,17.40
2018-09-24T19:37:01.068Z,17.40
2018-09-24T19:39:39.736Z,17.40
2018-09-24T19:42:14.506Z,17.40
2018-09-24T19:44:49.821Z,17.40
2018-09-24T19:47:24.375Z,17.30
2018-09-24T19:49:59.089Z,17.30
2018-09-24T19:55:45.896Z,17.30
2018-09-24T20:01:28.150Z,17.20
2018-09-24T20:04:02.711Z,17.10
2018-09-24T20:06:44.043Z,17.10
2018-09-24T20:09:18.619Z,17.10
2018-09-24T20:11:53.444Z,17.10
2018-09-24T20:14:28.376Z,17.10
2018-09-24T20:17:04.713Z,17.10
2018-09-24T20:19:41.379Z,17.00
2018-09-24T20:22:17.610Z,17.00
2018-09-24T20:24:59.422Z,16.90
2018-09-24T20:27:34.230Z,16.90
2018-09-24T20:30:08.984Z,16.90
2018-09-24T20:32:44.804Z,16.80
2018-09-24T20:35:20.107Z,16.70
2018-09-24T20:38:00.344Z,16.70
2018-09-24T20:40:34.966Z,16.70
2018-09-24T20:43:09.897Z,16.70
2018-09-24T20:45:45.641Z,16.60
2018-09-24T20:48:20.389Z,16.50
2018-09-24T20:50:55.352Z,16.40
2018-09-24T20:53:33.001Z,16.40
2018-09-24T20:56:07.711Z,16.30
2018-09-24T20:58:42.391Z,16.40
2018-09-24T21:01:17.046Z,16.30
2018-09-24T21:03:54.169Z,16.50
2018-09-24T21:06:29.198Z,16.40
2018-09-24T21:09:03.928Z,16.30
2018-09-24T21:11:38.774Z,16.20
2018-09-24T21:14:13.593Z,16.10
2018-09-24T21:16:53.836Z,16.10
2018-09-24T21:19:28.498Z,16.00
2018-09-24T21:22:03.147Z,16.00
2018-09-24T21:24:38.027Z,16.00
2018-09-24T21:27:12.863Z,16.00
2018-09-24T21:29:47.666Z,15.90
2018-09-24T21:32:22.496Z,15.90
2018-09-24T21:34:57.473Z,15.90
2018-09-24T21:37:32.251Z,15.80
2018-09-24T21:40:06.991Z,15.90
2018-09-24T21:42:41.779Z,15.80
2018-09-24T21:45:22.066Z,15.90
2018-09-24T21:47:56.772Z,15.80
2018-09-24T21:50:33.063Z,15.80
2018-09-24T21:53:09.410Z,15.80
2018-09-24T21:55:45.831Z,15.70
2018-09-24T21:58:22.101Z,15.80
2018-09-24T22:00:56.918Z,15.80
2018-09-24T22:03:32.207Z,15.90
2018-09-24T22:06:06.984Z,15.90
2018-09-24T22:08:41.862Z,15.90
2018-09-24T22:11:18.098Z,15.80
2018-09-24T22:13:52.982Z,15.80
2018-09-24T22:16:27.788Z,16.00
2018-09-24T22:19:03.158Z,16.00
2018-09-24T22:21:51.476Z,15.90
2018-09-24T22:24:25.736Z,15.80
2018-09-24T22:27:00.077Z,15.80
2018-09-24T22:29:35.703Z,15.70
2018-09-24T22:32:10.429Z,15.70
2018-09-24T22:34:44.657Z,15.70
2018-09-24T22:37:18.858Z,15.80
2018-09-24T22:39:53.031Z,15.80
2018-09-24T22:42:27.376Z,15.80
2018-09-24T22:45:02.438Z,15.80
2018-09-24T22:47:36.818Z,15.80
2018-09-24T22:50:11.340Z,15.90
2018-09-24T22:52:57.073Z,16.00
2018-09-24T22:55:31.968Z,15.90
2018-09-24T22:58:06.409Z,15.90
2018-09-24T23:00:40.623Z,15.90
2018-09-24T23:03:15.267Z,15.90
2018-09-24T23:05:49.480Z,16.00
2018-09-24T23:08:23.778Z,15.90
2018-09-24T23:10:58.835Z,16.00
2018-09-24T23:13:33.133Z,16.00
2018-09-24T23:16:07.476Z,16.00
2018-09-24T23:18:42.321Z,16.00
2018-09-24T23:21:16.461Z,16.10
2018-09-24T23:23:51.769Z,16.00
2018-09-24T23:26:26.861Z,15.90
2018-09-24T23:29:01.787Z,15.90
2018-09-24T23:31:35.889Z,15.90
2018-09-24T23:34:10.264Z,16.00
2018-09-24T23:36:44.489Z,16.00
2018-09-24T23:39:18.783Z,16.00
2018-09-24T23:41:53.033Z,15.90
2018-09-24T23:44:27.416Z,15.90
2018-09-24T23:47:01.585Z,15.80
2018-09-24T23:49:36.041Z,15.80
2018-09-24T23:52:10.277Z,15.80
2018-09-24T23:54:45.154Z,15.80
2018-09-24T23:57:19.583Z,15.70
2018-09-24T23:59:53.989Z,15.60
